Johnny James — WYT8450 — position and weather

sailwx.info

Track history (hours):
 
Tides and Currents Weather Stations Pressure Air Temp Water Temp Dewpoint Dewpoint Depression Visibility Wind Speed Wind Dir Waves Ship Positions

Johnny James

More information available from US FCC via Universal Licensing System and Coast Guard Vessel Documentation Center.

Last reported at 2014-Jul-22 21:34 UTC. Time now 2014-Jul-22 21:35 UTC.
Position N 29°45' W 095°06'.

Length 35 m.

Type: Towing. MMSI: 367005220.

Date/timePositionNaut miles runAvg speedWind from/ knotsBaromVisibWave heightAir tempDewpointWater temp
2014-Jul-22 21:34N 29°45' W 095°06'0 0.0
2014-Jul-22 20:34N 29°45' W 095°06'0 0.0
2014-Jul-22 19:34N 29°45' W 095°06'0 0.0
2014-Jul-22 18:34N 29°45' W 095°06'0 0.0
2014-Jul-22 17:33N 29°45' W 095°06'0 0.0
2014-Jul-22 16:33N 29°45' W 095°06'0 0.0
2014-Jul-22 15:33N 29°45' W 095°06'0 0.0
2014-Jul-22 14:33N 29°45' W 095°06'0 0.0
2014-Jul-22 13:33N 29°45' W 095°06'0 0.0
2014-Jul-22 12:33N 29°45' W 095°06'0 0.0
2014-Jul-22 11:33N 29°45' W 095°06'0 0.0
2014-Jul-22 10:33N 29°45' W 095°06'0 0.0
2014-Jul-22 09:33N 29°45' W 095°06'0 0.0
2014-Jul-22 08:33N 29°45' W 095°06'0 0.0
2014-Jul-22 07:33N 29°45' W 095°06'0 0.0
2014-Jul-22 06:33N 29°45' W 095°06'0 0.0
2014-Jul-22 05:33N 29°45' W 095°06'1 0.8
2014-Jul-22 04:33N 29°46' W 095°06'0 0.1
2014-Jul-22 03:33N 29°45' W 095°06'0 0.0
2014-Jul-22 02:33N 29°45' W 095°06'0 0.0
2014-Jul-22 01:33N 29°45' W 095°06'0 0.0
2014-Jul-22 00:33N 29°45' W 095°06'0 0.0
2014-Jul-21 23:33N 29°45' W 095°06'0 0.0
2014-Jul-21 22:33N 29°45' W 095°06'2 2.2
2014-Jul-21 21:33N 29°47' W 095°04'2 1.9
2014-Jul-21 20:33N 29°46' W 095°06'0 0.0
2014-Jul-21 20:18N 29°46' W 095°06'0 0.0
2014-Jul-21 19:33N 29°46' W 095°06'0 0.0
2014-Jul-21 18:33N 29°46' W 095°06'0 0.0
2014-Jul-21 17:33N 29°46' W 095°06'0 0.0
2014-Jul-21 16:33N 29°46' W 095°06'0 0.5
2014-Jul-21 15:33N 29°45' W 095°06'0 0.0
2014-Jul-21 14:33N 29°45' W 095°06'0 0.0
2014-Jul-21 13:34N 29°45' W 095°06'0 0.0
2014-Jul-21 12:33N 29°45' W 095°06'0 0.0
2014-Jul-21 11:34N 29°45' W 095°06'33553347.1
2014-Jul-21 10:33N 85°41' W 095°06'33553363.8
2014-Jul-21 09:34N 29°45' W 095°06'0 0.0
2014-Jul-21 08:34N 29°45' W 095°06'0 0.0
2014-Jul-21 07:34N 29°45' W 095°06'0 0.0
2014-Jul-21 06:34N 29°45' W 095°06'0 0.4
2014-Jul-21 05:33N 29°46' W 095°06'0 0.0
2014-Jul-21 04:33N 29°46' W 095°06'0 0.0
2014-Jul-21 03:33N 29°46' W 095°06'0 0.2
2014-Jul-21 02:34N 29°46' W 095°05'4 4.0
2014-Jul-21 01:33N 29°44' W 095°01'0 0.0
2014-Jul-21 00:33N 29°44' W 095°01'0 0.0
2014-Jul-20 23:33N 29°44' W 095°01'0 0.0
2014-Jul-20 22:33N 29°44' W 095°01'0 0.0
2014-Jul-20 21:33N 29°44' W 095°01'0 0.0
2014-Jul-20 20:33N 29°44' W 095°01'0 0.0
2014-Jul-20 19:33N 29°44' W 095°01'0 0.0
2014-Jul-20 18:32N 29°44' W 095°01'0 0.0
2014-Jul-20 17:33N 29°44' W 095°01'0 0.1
2014-Jul-20 16:33N 29°44' W 095°01'0 0.0
2014-Jul-20 15:34N 29°44' W 095°01'0 0.0
2014-Jul-20 14:33N 29°44' W 095°01'0 0.0
2014-Jul-20 13:33N 29°44' W 095°01'0 0.0
2014-Jul-20 12:33N 29°44' W 095°01'0 0.0
2014-Jul-20 11:33N 29°44' W 095°01'0 0.0
2014-Jul-20 10:33N 29°44' W 095°01'0 0.0
2014-Jul-20 09:33N 29°44' W 095°01'0 0.0
2014-Jul-20 08:33N 29°44' W 095°01'0 0.0
2014-Jul-20 07:33N 29°44' W 095°01'0 0.0
2014-Jul-20 06:33N 29°44' W 095°01'0 0.0
2014-Jul-20 05:33N 29°44' W 095°01'0 0.0
2014-Jul-20 04:34N 29°44' W 095°01'0 0.0
2014-Jul-20 03:34N 29°44' W 095°01'0 0.0
2014-Jul-20 02:29N 29°44' W 095°01'0 0.0
2014-Jul-20 01:33N 29°44' W 095°01'0 0.0
2014-Jul-20 00:33N 29°44' W 095°01'0 0.0
2014-Jul-19 23:33N 29°44' W 095°01'0 0.1
2014-Jul-19 22:33N 29°44' W 095°01'0 0.0
2014-Jul-19 21:34N 29°44' W 095°01'0 0.0
2014-Jul-19 20:33N 29°44' W 095°01'0 0.0
2014-Jul-19 19:33N 29°44' W 095°01'0 0.0
2014-Jul-19 18:33N 29°44' W 095°01'0 0.0
2014-Jul-19 17:34N 29°44' W 095°01'0 0.4
2014-Jul-19 16:34N 29°44' W 095°02'4 4.1
2014-Jul-19 15:34N 29°47' W 095°04'3 3.1
2014-Jul-19 14:33N 29°44' W 095°03'2 1.9
2014-Jul-19 13:34N 29°44' W 095°01'0 0.0
2014-Jul-19 12:34N 29°44' W 095°01'0 0.0
2014-Jul-19 11:32N 29°44' W 095°01'0 0.0
2014-Jul-19 10:33N 29°44' W 095°01'0 0.0
2014-Jul-19 09:34N 29°44' W 095°01'0 0.0
2014-Jul-19 08:33N 29°44' W 095°01'0 0.0
2014-Jul-19 07:33N 29°44' W 095°01'0 0.0
2014-Jul-19 06:34N 29°44' W 095°01'0 0.0
2014-Jul-19 05:33N 29°44' W 095°01'0 0.0
2014-Jul-19 04:33N 29°44' W 095°01'0 0.0
2014-Jul-19 03:34N 29°44' W 095°01'0 0.0
2014-Jul-19 02:31N 29°44' W 095°01'0 0.0
2014-Jul-19 01:34N 29°44' W 095°01'0 0.0
2014-Jul-19 00:33N 29°44' W 095°01'0 0.2
2014-Jul-18 23:33N 29°44' W 095°01'2 2.0
2014-Jul-18 22:33N 29°42' W 095°00'5 5.3
2014-Jul-18 21:34N 29°37' W 094°57'6 6.1
2014-Jul-18 20:33N 29°32' W 094°54'6 5.5
2014-Jul-18 19:33N 29°27' W 094°51'  
Track history (hours):
 
Tides and Currents Weather Stations Pressure Air Temp Water Temp Dewpoint Dewpoint Depression Visibility Wind Speed Wind Dir Waves Ship Positions

Johnny James

More information available from US FCC via Universal Licensing System and Coast Guard Vessel Documentation Center.

Last reported at 2014-Jul-22 21:34 UTC. Time now 2014-Jul-22 21:35 UTC.
Position N 29°45' W 095°06'.

Length 35 m.

Type: Towing. MMSI: 367005220.

Date/timePositionNaut miles runAvg speedWind from/ knotsBaromVisibWave heightAir tempDewpointWater temp
2014-Jul-22 21:34N 29°45' W 095°06'0 0.0
2014-Jul-22 20:34N 29°45' W 095°06'0 0.0
2014-Jul-22 19:34N 29°45' W 095°06'0 0.0
2014-Jul-22 18:34N 29°45' W 095°06'0 0.0
2014-Jul-22 17:33N 29°45' W 095°06'0 0.0
2014-Jul-22 16:33N 29°45' W 095°06'0 0.0
2014-Jul-22 15:33N 29°45' W 095°06'0 0.0
2014-Jul-22 14:33N 29°45' W 095°06'0 0.0
2014-Jul-22 13:33N 29°45' W 095°06'0 0.0
2014-Jul-22 12:33N 29°45' W 095°06'0 0.0
2014-Jul-22 11:33N 29°45' W 095°06'0 0.0
2014-Jul-22 10:33N 29°45' W 095°06'0 0.0
2014-Jul-22 09:33N 29°45' W 095°06'0 0.0
2014-Jul-22 08:33N 29°45' W 095°06'0 0.0
2014-Jul-22 07:33N 29°45' W 095°06'0 0.0
2014-Jul-22 06:33N 29°45' W 095°06'0 0.0
2014-Jul-22 05:33N 29°45' W 095°06'1 0.8
2014-Jul-22 04:33N 29°46' W 095°06'0 0.1
2014-Jul-22 03:33N 29°45' W 095°06'0 0.0
2014-Jul-22 02:33N 29°45' W 095°06'0 0.0
2014-Jul-22 01:33N 29°45' W 095°06'0 0.0
2014-Jul-22 00:33N 29°45' W 095°06'0 0.0
2014-Jul-21 23:33N 29°45' W 095°06'0 0.0
2014-Jul-21 22:33N 29°45' W 095°06'2 2.2
2014-Jul-21 21:33N 29°47' W 095°04'2 1.9
2014-Jul-21 20:33N 29°46' W 095°06'0 0.0
2014-Jul-21 20:18N 29°46' W 095°06'0 0.0
2014-Jul-21 19:33N 29°46' W 095°06'0 0.0
2014-Jul-21 18:33N 29°46' W 095°06'0 0.0
2014-Jul-21 17:33N 29°46' W 095°06'0 0.0
2014-Jul-21 16:33N 29°46' W 095°06'0 0.5
2014-Jul-21 15:33N 29°45' W 095°06'0 0.0
2014-Jul-21 14:33N 29°45' W 095°06'0 0.0
2014-Jul-21 13:34N 29°45' W 095°06'0 0.0
2014-Jul-21 12:33N 29°45' W 095°06'0 0.0
2014-Jul-21 11:34N 29°45' W 095°06'33553347.1
2014-Jul-21 10:33N 85°41' W 095°06'33553363.8
2014-Jul-21 09:34N 29°45' W 095°06'0 0.0
2014-Jul-21 08:34N 29°45' W 095°06'0 0.0
2014-Jul-21 07:34N 29°45' W 095°06'0 0.0
2014-Jul-21 06:34N 29°45' W 095°06'0 0.4
2014-Jul-21 05:33N 29°46' W 095°06'0 0.0
2014-Jul-21 04:33N 29°46' W 095°06'0 0.0
2014-Jul-21 03:33N 29°46' W 095°06'0 0.2
2014-Jul-21 02:34N 29°46' W 095°05'4 4.0
2014-Jul-21 01:33N 29°44' W 095°01'0 0.0
2014-Jul-21 00:33N 29°44' W 095°01'0 0.0
2014-Jul-20 23:33N 29°44' W 095°01'0 0.0
2014-Jul-20 22:33N 29°44' W 095°01'0 0.0
2014-Jul-20 21:33N 29°44' W 095°01'0 0.0
2014-Jul-20 20:33N 29°44' W 095°01'0 0.0
2014-Jul-20 19:33N 29°44' W 095°01'0 0.0
2014-Jul-20 18:32N 29°44' W 095°01'0 0.0
2014-Jul-20 17:33N 29°44' W 095°01'0 0.1
2014-Jul-20 16:33N 29°44' W 095°01'0 0.0
2014-Jul-20 15:34N 29°44' W 095°01'0 0.0
2014-Jul-20 14:33N 29°44' W 095°01'0 0.0
2014-Jul-20 13:33N 29°44' W 095°01'0 0.0
2014-Jul-20 12:33N 29°44' W 095°01'0 0.0
2014-Jul-20 11:33N 29°44' W 095°01'0 0.0
2014-Jul-20 10:33N 29°44' W 095°01'0 0.0
2014-Jul-20 09:33N 29°44' W 095°01'0 0.0
2014-Jul-20 08:33N 29°44' W 095°01'0 0.0
2014-Jul-20 07:33N 29°44' W 095°01'0 0.0
2014-Jul-20 06:33N 29°44' W 095°01'0 0.0
2014-Jul-20 05:33N 29°44' W 095°01'0 0.0
2014-Jul-20 04:34N 29°44' W 095°01'0 0.0
2014-Jul-20 03:34N 29°44' W 095°01'0 0.0
2014-Jul-20 02:29N 29°44' W 095°01'0 0.0
2014-Jul-20 01:33N 29°44' W 095°01'0 0.0
2014-Jul-20 00:33N 29°44' W 095°01'0 0.0
2014-Jul-19 23:33N 29°44' W 095°01'0 0.1
2014-Jul-19 22:33N 29°44' W 095°01'0 0.0
2014-Jul-19 21:34N 29°44' W 095°01'0 0.0
2014-Jul-19 20:33N 29°44' W 095°01'0 0.0
2014-Jul-19 19:33N 29°44' W 095°01'0 0.0
2014-Jul-19 18:33N 29°44' W 095°01'0 0.0
2014-Jul-19 17:34N 29°44' W 095°01'0 0.4
2014-Jul-19 16:34N 29°44' W 095°02'4 4.1
2014-Jul-19 15:34N 29°47' W 095°04'3 3.1
2014-Jul-19 14:33N 29°44' W 095°03'2 1.9
2014-Jul-19 13:34N 29°44' W 095°01'0 0.0
2014-Jul-19 12:34N 29°44' W 095°01'0 0.0
2014-Jul-19 11:32N 29°44' W 095°01'0 0.0
2014-Jul-19 10:33N 29°44' W 095°01'0 0.0
2014-Jul-19 09:34N 29°44' W 095°01'0 0.0
2014-Jul-19 08:33N 29°44' W 095°01'0 0.0
2014-Jul-19 07:33N 29°44' W 095°01'0 0.0
2014-Jul-19 06:34N 29°44' W 095°01'0 0.0
2014-Jul-19 05:33N 29°44' W 095°01'0 0.0
2014-Jul-19 04:33N 29°44' W 095°01'0 0.0
2014-Jul-19 03:34N 29°44' W 095°01'0 0.0
2014-Jul-19 02:31N 29°44' W 095°01'0 0.0
2014-Jul-19 01:34N 29°44' W 095°01'0 0.0
2014-Jul-19 00:33N 29°44' W 095°01'0 0.2
2014-Jul-18 23:33N 29°44' W 095°01'2 2.0
2014-Jul-18 22:33N 29°42' W 095°00'5 5.3
2014-Jul-18 21:34N 29°37' W 094°57'6 6.1
2014-Jul-18 20:33N 29°32' W 094°54'6 5.5
2014-Jul-18 19:33N 29°27' W 094°51'  

Dump ship's entire track history